Hauptseite
METAR-TAF:

METAR-TAF

Flughäfen :

Fliegerhorst Nörvenich

Nörvenich, Deutschland

Breite: 50-50N, Länge: 006-40E, Höhe: 118 m

Beobachtung

Neuester Wetterbericht von vor 1 Stunde und 0 Minuten, um 04:20 UTC
Wind 3 kt aus Südost
Temperatur 7°C
Luftfeuchtigkeit 87%
Luftdruck 1026 hPa
Sichtweite 10 km oder mehr
Leicht bewölkt in der Höhe von 34000 ft

METAR: ETNN 070420Z 14003KT 9999 FEW340 07/05 Q1026 BLU+BLU+

Zeit: 07:20 (05:20 UTC)

Prognose

Neuester Wetterbericht von vor 1 Stunde und 13 Minuten, um 04:07 UTC
Gültige Prognose vom 07 um 05 UTC bis 07 um 14 UTC
Wind 5 kt aus Süd
Sichtweite 10 km oder mehr
Leicht bewölkt in der Höhe von 3000 ft
Leicht bewölkt in der Höhe von 28000 ft

TAF: ETNN 070407Z 0705/0714 17005KT 9999 NSW FEW030 FEW280 BY ETGL

Wetterbeobachtungen und Prognosen von mehr als 4000 Flughäfen (METAR und TAF Bericht).

Die verfügbaren Stationen werden durch gelbe und rote Markierungen auf der Karte dargestellt.

Führen Sie die Maus auf sie, um den Namen der Station zu sehen.

Darauf klicken, um die Beobachtung von Wetterbeobachtungen und Prognosen zu sehen.

Um die Karte zu ändern : klicken Sie auf den grünen Tasten mit einem schwarzen Kreuz Zum Vergrößern, auf den grünen Button mit einem Gedankenstrich zu verkleinern, oder auf die grünen Pfeile für benachbarte Karten.


METAR-TAF: